Time;durP1;ratioP1;P1;durP2;ratioP2;P2;SDS_P1;SDS_P2;PMS_P1;PMS_P2;Temp;Humidity;BMP_temperature;BMP_pressure;BME280_temperature;BME280_humidity;BME280_pressure;Samples;Min_cycle;Max_cycle;Signal;HPM_P1;HPM_P2
2021/09/09 00:01:33;;;;;;;284.10;258.40;;;17.20;99.50;;;;;;5047612;28;20450;-77
2021/09/09 00:04:02;;;;;;;146.80;140.63;;;17.20;99.50;;;;;;5049509;28;20559;-78
2021/09/09 00:06:31;;;;;;;36.78;34.38;;;17.10;99.50;;;;;;5051131;28;20985;-78
2021/09/09 00:09:00;;;;;;;74.90;69.77;;;17.20;99.90;;;;;;5048243;28;20199;-77
2021/09/09 00:11:30;;;;;;;141.50;130.17;;;17.10;99.70;;;;;;5034769;28;20450;-77
2021/09/09 00:13:59;;;;;;;14.95;13.55;;;17.10;99.70;;;;;;5048210;28;20804;-78
2021/09/09 00:16:30;;;;;;;53.80;50.90;;;17.20;99.90;;;;;;5053231;28;20195;-78
2021/09/09 00:19:01;;;;;;;63.90;60.27;;;17.20;99.90;;;;;;5053418;28;20854;-78
2021/09/09 00:21:30;;;;;;;170.13;154.90;;;17.10;99.80;;;;;;5030080;28;20451;-78
2021/09/09 00:23:59;;;;;;;126.17;116.13;;;17.00;99.80;;;;;;5044294;28;20485;-78
2021/09/09 00:26:27;;;;;;;128.37;117.67;;;17.00;99.80;;;;;;5057315;28;20457;-78
2021/09/09 00:28:57;;;;;;;846.80;674.00;;;17.00;99.90;;;;;;5047832;28;20453;-78
2021/09/09 00:31:25;;;;;;;1174.37;775.93;;;16.90;99.90;;;;;;5056407;28;20434;-78
2021/09/09 00:33:55;;;;;;;1252.77;801.47;;;16.90;99.90;;;;;;5038415;28;20477;-77
2021/09/09 00:36:26;;;;;;;653.33;605.50;;;16.80;99.90;;;;;;5057050;28;20469;-78
2021/09/09 00:38:55;;;;;;;66.80;63.60;;;16.80;99.90;;;;;;5050651;28;20501;-78
2021/09/09 00:41:23;;;;;;;235.00;222.93;;;16.90;99.90;;;;;;5038081;28;20195;-78
2021/09/09 00:43:51;;;;;;;55.75;52.90;;;16.90;99.90;;;;;;5055956;28;20478;-78
2021/09/09 00:46:22;;;;;;;183.33;174.33;;;16.90;99.90;;;;;;5038142;28;20245;-77
2021/09/09 00:48:51;;;;;;;273.87;260.63;;;16.80;99.90;;;;;;5047620;28;20981;-78
2021/09/09 00:51:20;;;;;;;353.10;334.97;;;16.80;99.90;;;;;;5047317;28;20446;-76
2021/09/09 00:53:50;;;;;;;391.03;369.00;;;16.70;99.90;;;;;;5055211;28;20462;-78
2021/09/09 00:56:20;;;;;;;374.00;353.13;;;16.70;99.90;;;;;;5054730;28;20984;-78
2021/09/09 00:58:48;;;;;;;360.97;341.33;;;16.60;99.90;;;;;;5045075;28;20898;-78
2021/09/09 01:01:17;;;;;;;327.67;309.37;;;16.60;99.90;;;;;;5017914;28;20450;-77
2021/09/09 01:03:45;;;;;;;363.93;342.87;;;16.60;99.90;;;;;;5035320;28;20554;-77
2021/09/09 01:06:13;;;;;;;366.17;345.50;;;16.50;99.90;;;;;;5043845;28;20442;-77
2021/09/09 01:08:42;;;;;;;100.30;95.43;;;16.50;99.90;;;;;;5038132;28;20513;-78
2021/09/09 01:11:12;;;;;;;283.57;268.17;;;16.50;99.90;;;;;;5021575;28;20204;-78
2021/09/09 01:13:49;;;;;;;342.10;322.37;;;16.40;99.90;;;;;;5018460;28;20500;-78
2021/09/09 01:16:18;;;;;;;415.07;391.03;;;16.40;99.90;;;;;;5018619;28;20418;-78
2021/09/09 01:18:46;;;;;;;409.43;382.97;;;16.40;99.90;;;;;;5017985;28;20963;-78
2021/09/09 01:21:15;;;;;;;366.27;345.13;;;16.40;99.90;;;;;;5044750;28;20454;-77
2021/09/09 01:23:44;;;;;;;364.67;344.60;;;16.40;99.90;;;;;;5037888;28;20470;-77
2021/09/09 01:26:14;;;;;;;323.77;305.83;;;16.30;99.90;;;;;;5054121;28;20530;-77
2021/09/09 01:28:42;;;;;;;358.40;337.57;;;16.30;99.90;;;;;;5053802;28;20449;-77
2021/09/09 01:31:11;;;;;;;440.37;413.87;;;16.30;99.90;;;;;;5056213;28;20434;-77
2021/09/09 01:33:39;;;;;;;381.90;358.87;;;16.30;99.90;;;;;;5038779;28;20466;-78
2021/09/09 01:36:07;;;;;;;411.73;386.93;;;16.20;99.90;;;;;;5039075;28;20476;-78
2021/09/09 01:38:36;;;;;;;435.03;407.47;;;16.20;99.90;;;;;;5019845;28;20489;-77
2021/09/09 01:41:04;;;;;;;107.60;102.50;;;16.20;99.90;;;;;;5018322;28;20439;-78
2021/09/09 01:43:34;;;;;;;295.30;128.20;;;16.20;99.90;;;;;;5017241;28;20721;-78
2021/09/09 01:46:02;;;;;;;115.90;108.27;;;16.20;99.90;;;;;;5033721;28;20474;-78
2021/09/09 01:48:31;;;;;;;40.10;37.90;;;16.20;99.90;;;;;;5033603;28;20818;-78
2021/09/09 01:51:00;;;;;;;76.20;71.67;;;16.20;99.90;;;;;;5038308;28;20460;-77
2021/09/09 01:53:28;;;;;;;315.83;150.23;;;16.20;99.90;;;;;;5054584;28;20449;-77
2021/09/09 01:55:56;;;;;;;290.80;151.57;;;16.20;99.90;;;;;;5036912;28;20449;-78
2021/09/09 01:58:25;;;;;;;165.33;83.90;;;16.10;99.90;;;;;;5055026;28;20453;-78
2021/09/09 02:00:57;;;;;;;74.77;70.50;;;16.10;99.90;;;;;;5054983;28;20938;-78
2021/09/09 02:03:26;;;;;;;84.47;79.67;;;16.10;99.90;;;;;;5037381;28;20444;-78
2021/09/09 02:05:54;;;;;;;91.47;85.83;;;16.00;99.90;;;;;;5036815;28;20466;-77
2021/09/09 02:08:23;;;;;;;79.23;75.10;;;16.00;99.90;;;;;;5045213;28;20424;-77
2021/09/09 02:10:51;;;;;;;73.13;68.17;;;16.00;99.90;;;;;;5054936;28;20420;-78
2021/09/09 02:13:19;;;;;;;107.28;63.22;;;16.00;99.90;;;;;;5036257;28;20509;-77
2021/09/09 02:15:48;;;;;;;198.90;138.43;;;16.00;99.90;;;;;;5037129;28;20867;-78
2021/09/09 02:18:18;;;;;;;259.60;131.50;;;16.00;99.90;;;;;;5036283;28;20450;-77
2021/09/09 02:20:46;;;;;;;16.33;14.82;;;15.90;99.90;;;;;;5039517;28;20465;-78
2021/09/09 02:23:14;;;;;;;138.93;94.87;;;16.00;99.90;;;;;;5054861;28;20759;-78
2021/09/09 02:25:43;;;;;;;189.57;105.10;;;16.00;99.90;;;;;;5053234;28;20815;-78
2021/09/09 02:28:11;;;;;;;210.40;112.40;;;15.90;99.90;;;;;;5053270;28;20457;-78
2021/09/09 02:30:40;;;;;;;191.83;132.33;;;15.90;99.90;;;;;;5052741;28;20421;-78
2021/09/09 02:33:09;;;;;;;172.37;127.83;;;15.80;99.90;;;;;;5054075;28;20424;-77
2021/09/09 02:35:39;;;;;;;201.00;117.40;;;15.80;99.90;;;;;;5034997;28;20490;-78
2021/09/09 02:38:07;;;;;;;64.00;60.90;;;15.80;99.90;;;;;;5044959;28;20455;-78
2021/09/09 02:40:36;;;;;;;207.30;136.20;;;15.70;99.90;;;;;;5036786;28;20808;-77
2021/09/09 02:43:04;;;;;;;227.93;120.37;;;15.70;99.90;;;;;;5036227;28;20449;-78
2021/09/09 02:45:33;;;;;;;231.10;122.80;;;15.70;99.90;;;;;;5036139;28;21031;-77
2021/09/09 02:48:02;;;;;;;237.57;135.43;;;15.60;99.90;;;;;;5036046;28;20428;-78
2021/09/09 02:50:31;;;;;;;244.37;133.40;;;15.60;99.90;;;;;;5053788;28;20507;-77
2021/09/09 02:53:01;;;;;;;18.70;17.10;;;15.60;99.90;;;;;;5034227;28;20459;-77
2021/09/09 02:55:29;;;;;;;269.87;48.50;;;15.70;99.90;;;;;;5046413;28;20220;-78
2021/09/09 02:57:58;;;;;;;257.50;124.13;;;15.70;99.90;;;;;;5016066;28;20433;-78
2021/09/09 03:00:26;;;;;;;238.53;140.83;;;15.60;99.90;;;;;;5034029;28;20413;-78
2021/09/09 03:02:54;;;;;;;258.10;145.07;;;15.60;99.90;;;;;;5016498;28;20463;-78
2021/09/09 03:05:23;;;;;;;263.30;153.33;;;15.50;99.90;;;;;;5015900;28;20475;-78
2021/09/09 03:07:51;;;;;;;78.80;74.30;;;15.60;99.90;;;;;;5053286;28;20961;-78
2021/09/09 03:10:21;;;;;;;260.07;138.43;;;15.50;99.90;;;;;;5053991;28;20974;-78
2021/09/09 03:12:49;;;;;;;100.37;93.67;;;15.50;99.90;;;;;;5052403;28;20416;-78
2021/09/09 03:15:18;;;;;;;255.67;152.43;;;15.50;99.90;;;;;;5033982;28;20441;-78
2021/09/09 03:17:46;;;;;;;82.60;77.40;;;15.40;99.90;;;;;;5027517;28;20437;-78
2021/09/09 03:20:14;;;;;;;34.38;32.38;;;15.40;99.90;;;;;;5052934;28;20840;-77
2021/09/09 03:22:43;;;;;;;52.97;49.03;;;15.50;99.90;;;;;;5049035;28;20219;-78
2021/09/09 03:25:11;;;;;;;61.72;48.58;;;15.50;99.90;;;;;;5051510;28;20438;-78
2021/09/09 03:27:41;;;;;;;153.80;94.13;;;15.50;99.90;;;;;;5052110;28;20235;-78
2021/09/09 03:30:11;;;;;;;174.00;114.77;;;15.40;99.90;;;;;;5034470;28;20428;-77
2021/09/09 03:32:42;;;;;;;212.27;113.70;;;15.40;99.90;;;;;;5039026;28;20419;-77
2021/09/09 03:35:10;;;;;;;199.57;125.27;;;15.40;99.90;;;;;;5053204;28;20440;-78
2021/09/09 03:37:39;;;;;;;187.40;125.50;;;15.30;99.90;;;;;;5036792;28;20432;-78
2021/09/09 03:40:08;;;;;;;217.57;123.00;;;15.30;99.90;;;;;;5053904;28;20474;-78
2021/09/09 03:42:40;;;;;;;202.90;119.77;;;15.30;99.90;;;;;;5052232;28;20828;-78
2021/09/09 03:45:10;;;;;;;214.03;121.43;;;15.30;99.90;;;;;;5052323;28;20448;-77
2021/09/09 03:47:38;;;;;;;217.50;122.13;;;15.30;99.90;;;;;;5053700;28;20446;-78
2021/09/09 03:50:08;;;;;;;209.23;121.40;;;15.30;99.90;;;;;;5022034;28;20425;-77
2021/09/09 03:52:37;;;;;;;69.55;56.38;;;15.30;99.90;;;;;;5052969;28;20774;-78
2021/09/09 03:55:07;;;;;;;181.33;107.73;;;15.30;99.90;;;;;;5035358;28;20223;-78
2021/09/09 03:57:35;;;;;;;207.63;120.60;;;15.30;99.90;;;;;;5035236;28;20511;-78
2021/09/09 04:00:07;;;;;;;217.37;123.63;;;15.20;99.90;;;;;;5055146;28;20461;-78
2021/09/09 04:02:36;;;;;;;240.70;128.73;;;15.20;99.90;;;;;;5039534;28;20817;-77
2021/09/09 04:05:06;;;;;;;183.27;126.40;;;15.20;99.90;;;;;;5057010;28;20856;-78
2021/09/09 04:07:35;;;;;;;238.07;138.47;;;15.20;99.90;;;;;;5056915;28;20478;-78
2021/09/09 04:10:03;;;;;;;190.17;126.47;;;15.20;99.90;;;;;;5057175;28;20592;-77
2021/09/09 04:12:32;;;;;;;205.10;136.77;;;15.10;99.90;;;;;;5038297;28;20482;-77
2021/09/09 04:15:02;;;;;;;167.07;121.03;;;15.10;99.90;;;;;;5038656;28;20528;-77
2021/09/09 04:17:34;;;;;;;188.70;131.00;;;15.00;99.90;;;;;;5038883;28;20468;-78
2021/09/09 04:20:03;;;;;;;190.57;132.50;;;15.10;99.90;;;;;;5038593;28;20421;-78
2021/09/09 04:22:32;;;;;;;250.90;137.83;;;15.00;99.90;;;;;;5023304;28;20441;-77
2021/09/09 04:25:02;;;;;;;213.47;141.07;;;15.00;99.90;;;;;;5053576;28;20527;-77
2021/09/09 04:27:31;;;;;;;38.50;36.10;;;15.00;99.90;;;;;;5053856;28;20484;-78
2021/09/09 04:30:00;;;;;;;129.20;101.17;;;15.00;99.90;;;;;;5055568;28;20560;-78
2021/09/09 04:32:28;;;;;;;53.47;48.60;;;15.10;99.90;;;;;;5056202;28;20905;-78
2021/09/09 04:34:58;;;;;;;153.80;98.07;;;15.10;99.90;;;;;;5056359;28;20757;-78
2021/09/09 04:37:26;;;;;;;150.07;109.00;;;15.00;99.90;;;;;;5044367;28;20450;-78
2021/09/09 04:39:54;;;;;;;153.07;115.93;;;15.00;99.90;;;;;;5055754;28;20474;-78
2021/09/09 04:42:25;;;;;;;145.70;122.90;;;14.90;99.90;;;;;;5057305;28;20450;-78
2021/09/09 04:44:53;;;;;;;151.10;122.20;;;14.90;99.90;;;;;;5038801;28;21027;-78
2021/09/09 04:47:21;;;;;;;155.10;120.30;;;14.90;99.90;;;;;;5038528;28;20594;-78
2021/09/09 04:49:49;;;;;;;188.27;118.33;;;14.90;99.90;;;;;;5026926;28;20825;-77
2021/09/09 04:52:19;;;;;;;158.47;122.90;;;14.90;99.90;;;;;;5054636;28;20473;-77
2021/09/09 04:54:47;;;;;;;178.47;120.97;;;14.90;99.90;;;;;;5054454;28;20452;-78
2021/09/09 04:57:16;;;;;;;194.20;135.00;;;14.80;99.90;;;;;;5055972;28;20470;-77
2021/09/09 04:59:44;;;;;;;190.63;129.47;;;14.80;99.90;;;;;;5037889;28;20969;-77
2021/09/09 05:02:12;;;;;;;43.38;40.78;;;14.80;99.90;;;;;;5053791;28;20946;-76
2021/09/09 05:04:41;;;;;;;98.40;85.57;;;14.90;99.90;;;;;;5049140;28;20219;-76
2021/09/09 05:07:09;;;;;;;37.47;35.00;;;14.90;99.90;;;;;;5043943;28;20436;-76
2021/09/09 05:09:38;;;;;;;121.20;85.97;;;14.90;99.90;;;;;;5052840;28;20981;-76
2021/09/09 05:12:07;;;;;;;123.00;98.30;;;14.90;99.90;;;;;;5054756;28;20461;-77
2021/09/09 05:14:35;;;;;;;144.10;98.07;;;14.90;99.90;;;;;;5037031;28;20871;-77
2021/09/09 05:17:04;;;;;;;386.13;142.30;;;14.80;99.90;;;;;;5036365;28;20453;-77
2021/09/09 05:19:32;;;;;;;217.70;93.20;;;14.80;99.90;;;;;;5037342;28;20489;-77
2021/09/09 05:22:00;;;;;;;114.67;102.87;;;14.80;99.90;;;;;;5037406;28;20457;-78
2021/09/09 05:24:29;;;;;;;320.37;128.50;;;14.80;99.90;;;;;;5055411;28;20445;-78
2021/09/09 05:26:58;;;;;;;405.43;144.67;;;14.80;99.90;;;;;;5055364;28;20494;-77
2021/09/09 05:29:26;;;;;;;126.57;97.30;;;14.80;99.90;;;;;;5055345;28;20499;-77
2021/09/09 05:31:55;;;;;;;325.47;112.33;;;14.80;99.90;;;;;;5037390;28;20425;-77
2021/09/09 05:34:23;;;;;;;167.13;97.27;;;14.80;99.90;;;;;;5039023;28;20451;-78
2021/09/09 05:36:51;;;;;;;25.63;23.33;;;14.80;99.90;;;;;;5038178;28;20436;-78
2021/09/09 05:39:19;;;;;;;338.83;119.70;;;14.90;99.90;;;;;;5039782;28;20504;-78
2021/09/09 05:41:47;;;;;;;46.90;44.00;;;14.90;99.90;;;;;;5038543;28;20455;-78
2021/09/09 05:44:20;;;;;;;218.60;111.50;;;15.00;99.90;;;;;;5039849;28;20223;-78
2021/09/09 05:46:48;;;;;;;346.60;109.53;;;15.00;99.90;;;;;;5039984;28;20474;-78
2021/09/09 05:49:17;;;;;;;325.77;117.70;;;15.00;99.90;;;;;;5059496;28;20413;-78
2021/09/09 05:51:45;;;;;;;319.47;110.57;;;15.00;99.90;;;;;;5059415;28;20460;-78
2021/09/09 05:54:13;;;;;;;125.97;90.33;;;15.00;99.90;;;;;;5057266;28;20513;-78
2021/09/09 05:56:42;;;;;;;377.33;152.30;;;15.00;99.90;;;;;;5056965;28;20452;-78
2021/09/09 05:59:11;;;;;;;387.97;162.03;;;15.00;99.90;;;;;;5057843;28;20421;-78
2021/09/09 06:01:41;;;;;;;351.40;127.10;;;15.00;99.90;;;;;;5041912;28;20439;-79
2021/09/09 06:04:10;;;;;;;118.10;92.80;;;15.10;99.90;;;;;;5044784;28;20440;-79
2021/09/09 06:06:39;;;;;;;134.03;95.37;;;15.10;99.90;;;;;;5045588;28;20911;-78
2021/09/09 06:09:07;;;;;;;115.07;96.67;;;15.10;99.90;;;;;;5045343;28;20439;-79
2021/09/09 06:11:36;;;;;;;61.33;57.33;;;15.20;99.90;;;;;;5044892;28;20442;-78
2021/09/09 06:14:04;;;;;;;377.97;146.07;;;15.40;99.90;;;;;;5045299;28;20212;-79
2021/09/09 06:16:33;;;;;;;57.63;54.13;;;15.60;99.90;;;;;;5046900;28;20448;-79
2021/09/09 06:19:03;;;;;;;369.47;152.43;;;15.80;99.90;;;;;;5067019;28;20684;-79
2021/09/09 06:21:32;;;;;;;441.97;181.70;;;16.00;99.90;;;;;;5048994;28;20545;-79
2021/09/09 06:24:12;;;;;;;;;;;;;;;;;;;;;
2021/09/09 06:26:42;;;;;;;212.50;144.20;;;16.30;99.90;;;;;;5050884;28;20797;-79
2021/09/09 06:29:11;;;;;;;335.30;158.77;;;16.50;99.90;;;;;;5050814;28;20546;-79
2021/09/09 06:31:39;;;;;;;349.37;171.20;;;16.70;99.90;;;;;;5048745;28;20440;-79
2021/09/09 06:34:09;;;;;;;352.80;173.30;;;16.90;99.90;;;;;;5050291;28;20507;-79
2021/09/09 06:36:37;;;;;;;114.13;105.50;;;17.10;99.90;;;;;;5050356;28;20955;-79
2021/09/09 06:39:06;;;;;;;125.87;116.73;;;17.20;99.90;;;;;;5050111;28;20421;-79
2021/09/09 06:41:35;;;;;;;94.13;88.63;;;17.40;99.90;;;;;;5071341;28;20430;-79
2021/09/09 06:44:05;;;;;;;63.63;59.70;;;17.50;99.90;;;;;;5072590;28;20469;-80
2021/09/09 06:46:33;;;;;;;63.72;60.42;;;17.60;99.90;;;;;;5055925;28;20454;-80
2021/09/09 06:49:02;;;;;;;78.63;74.30;;;17.80;99.90;;;;;;5055191;28;20222;-80
2021/09/09 06:51:32;;;;;;;75.28;71.47;;;17.90;99.90;;;;;;5054877;28;20871;-80
2021/09/09 06:54:00;;;;;;;75.23;71.23;;;18.10;99.90;;;;;;5055188;28;20242;-80
2021/09/09 06:56:29;;;;;;;73.30;69.30;;;18.20;99.90;;;;;;5055960;28;20466;-80
2021/09/09 06:58:57;;;;;;;76.87;72.63;;;18.20;99.90;;;;;;5055802;28;20450;-80
2021/09/09 07:01:26;;;;;;;92.80;87.67;;;18.30;99.90;;;;;;5071402;28;20466;-80
2021/09/09 07:03:55;;;;;;;94.37;89.17;;;18.40;99.90;;;;;;5055158;28;20466;-79
2021/09/09 07:06:25;;;;;;;106.03;100.30;;;18.40;99.90;;;;;;5055502;28;20453;-80
2021/09/09 07:08:58;;;;;;;90.93;86.00;;;18.40;99.90;;;;;;5056076;28;20462;-80
2021/09/09 07:11:27;;;;;;;102.63;97.63;;;18.40;99.90;;;;;;5055452;28;20438;-80
2021/09/09 07:13:56;;;;;;;135.97;128.30;;;18.40;99.90;;;;;;5055910;28;20534;-80
2021/09/09 07:16:24;;;;;;;95.83;91.20;;;18.40;99.90;;;;;;5055038;28;20480;-80
2021/09/09 07:18:53;;;;;;;106.23;100.93;;;18.40;99.90;;;;;;5055207;28;20478;-80
2021/09/09 07:21:21;;;;;;;78.87;75.17;;;18.40;99.90;;;;;;5052894;28;20470;-79
2021/09/09 07:23:51;;;;;;;117.20;110.10;;;18.50;99.90;;;;;;5055063;28;20472;-79
2021/09/09 07:26:21;;;;;;;71.82;68.30;;;18.40;99.90;;;;;;5072514;28;20439;-80
2021/09/09 07:28:49;;;;;;;82.20;77.97;;;18.40;99.90;;;;;;5055096;28;20218;-79
2021/09/09 07:31:17;;;;;;;69.33;65.33;;;18.40;99.90;;;;;;5073330;28;20476;-80
2021/09/09 07:33:46;;;;;;;67.10;63.40;;;18.40;99.90;;;;;;5056018;28;20545;-80
2021/09/09 07:36:15;;;;;;;84.53;80.30;;;18.40;99.90;;;;;;5057258;28;20453;-79
2021/09/09 07:38:43;;;;;;;77.07;72.77;;;18.40;99.90;;;;;;5074859;28;20438;-80
2021/09/09 07:41:12;;;;;;;130.10;121.47;;;18.40;99.90;;;;;;5074169;28;20517;-80
2021/09/09 07:43:41;;;;;;;82.50;78.30;;;18.50;99.90;;;;;;5057142;28;20473;-79
2021/09/09 07:46:10;;;;;;;114.80;109.00;;;18.60;99.90;;;;;;5056078;28;20460;-79
2021/09/09 07:48:39;;;;;;;193.70;183.50;;;18.70;99.90;;;;;;5054813;28;20561;-78
2021/09/09 07:51:07;;;;;;;123.87;118.03;;;18.80;99.90;;;;;;5054597;28;20446;-79
2021/09/09 07:53:40;;;;;;;145.33;138.23;;;19.00;99.90;;;;;;5056198;28;20474;-79
2021/09/09 07:56:09;;;;;;;163.53;155.20;;;19.10;99.90;;;;;;5074239;28;20452;-79
2021/09/09 07:58:37;;;;;;;215.43;205.00;;;19.30;99.90;;;;;;5056474;28;20453;-79
2021/09/09 08:01:07;;;;;;;96.78;92.55;;;19.50;99.90;;;;;;5072689;28;20439;-79
2021/09/09 08:03:36;;;;;;;288.47;274.23;;;19.70;99.90;;;;;;5055802;28;20230;-79
2021/09/09 08:06:04;;;;;;;411.90;388.53;;;19.90;99.90;;;;;;5055740;28;20461;-80
2021/09/09 08:08:33;;;;;;;394.33;373.03;;;20.10;99.90;;;;;;5055154;28;20465;-80
2021/09/09 08:11:03;;;;;;;428.87;403.70;;;20.20;99.90;;;;;;5072295;28;20445;-79
2021/09/09 08:13:31;;;;;;;398.77;376.87;;;20.40;99.90;;;;;;5054283;28;20485;-79
2021/09/09 08:16:00;;;;;;;1151.60;749.33;;;20.50;99.90;;;;;;5054612;28;20480;-78
2021/09/09 08:18:31;;;;;;;927.70;725.43;;;20.70;99.90;;;;;;5054289;28;20946;-78
2021/09/09 08:21:00;;;;;;;1172.33;792.60;;;20.80;99.90;;;;;;5054133;28;20439;-80
2021/09/09 08:23:29;;;;;;;1018.47;783.47;;;21.00;99.90;;;;;;5053547;28;20449;-79
2021/09/09 08:25:58;;;;;;;1999.90;995.80;;;21.10;99.90;;;;;;5054675;28;20546;-79
2021/09/09 08:28:29;;;;;;;526.33;493.73;;;21.20;99.90;;;;;;5053227;28;20447;-80
2021/09/09 08:30:57;;;;;;;1987.23;994.23;;;21.30;99.90;;;;;;5053154;28;20195;-79
2021/09/09 08:33:31;;;;;;;1999.90;999.90;;;21.50;99.90;;;;;;5071759;28;20442;-79
2021/09/09 08:36:04;;;;;;;387.45;367.40;;;21.60;99.90;;;;;;5052369;28;20452;-80
2021/09/09 08:38:33;;;;;;;1999.90;999.90;;;21.80;99.90;;;;;;5053338;28;20183;-79
2021/09/09 08:41:03;;;;;;;1999.90;999.90;;;21.90;99.90;;;;;;5053767;28;20460;-79
2021/09/09 08:43:31;;;;;;;1999.90;999.90;;;22.00;99.90;;;;;;5072899;28;20445;-79
2021/09/09 08:46:02;;;;;;;1999.90;999.90;;;22.10;99.90;;;;;;5055426;28;20442;-80
2021/09/09 08:48:32;;;;;;;1999.90;999.90;;;22.20;99.90;;;;;;5073429;28;20468;-80
2021/09/09 08:51:02;;;;;;;1999.90;999.90;;;22.30;99.90;;;;;;5075226;28;20422;-80
2021/09/09 08:53:32;;;;;;;1999.90;999.90;;;22.40;99.90;;;;;;5056523;28;22321;-80
2021/09/09 08:56:01;;;;;;;1999.90;999.90;;;22.50;99.90;;;;;;5056081;28;20434;-80
2021/09/09 08:58:30;;;;;;;1999.90;999.90;;;22.60;99.90;;;;;;5055703;28;20450;-79
2021/09/09 09:01:10;;;;;;;1999.90;999.90;;;22.70;99.90;;;;;;5056612;28;20442;-80
2021/09/09 09:03:57;;;;;;;297.40;276.92;;;22.80;99.90;;;;;;5054351;28;20474;-80
2021/09/09 09:06:38;;;;;;;1999.90;999.90;;;23.00;99.90;;;;;;5073603;28;20216;-80
2021/09/09 09:09:13;;;;;;;1377.90;671.22;;;23.10;99.90;;;;;;5054137;28;20516;-79
2021/09/09 09:11:44;;;;;;;1999.90;999.90;;;23.30;99.90;;;;;;5072459;28;20198;-80
2021/09/09 09:14:18;;;;;;;1999.90;999.90;;;23.40;99.90;;;;;;5054982;28;20474;-80
2021/09/09 09:16:49;;;;;;;1999.90;999.90;;;23.40;99.90;;;;;;5070774;28;20422;-79
2021/09/09 09:19:21;;;;;;;1999.90;999.90;;;23.50;99.90;;;;;;5074054;28;20480;-79
2021/09/09 09:21:54;;;;;;;1999.90;999.90;;;23.50;99.90;;;;;;5072255;28;20421;-79
2021/09/09 09:24:32;;;;;;;1999.90;999.90;;;23.60;99.90;;;;;;5072939;28;20499;-79
2021/09/09 09:27:13;;;;;;;1999.90;999.90;;;23.70;99.90;;;;;;5055244;28;20492;-79
2021/09/09 09:29:43;;;;;;;1999.90;999.90;;;23.80;99.90;;;;;;5054818;28;20484;-79
2021/09/09 09:32:14;;;;;;;1999.90;999.90;;;23.80;99.90;;;;;;5054865;28;20510;-80
2021/09/09 09:34:45;;;;;;;1999.90;999.90;;;23.90;99.90;;;;;;5052615;28;20448;-79
2021/09/09 09:37:22;;;;;;;1999.90;999.90;;;24.00;99.90;;;;;;5053462;28;20723;-79
2021/09/09 09:39:50;;;;;;;1999.90;999.90;;;24.00;99.90;;;;;;5051461;28;20426;-80
2021/09/09 09:42:26;;;;;;;1999.90;999.90;;;24.10;99.90;;;;;;5050747;28;20467;-79
2021/09/09 09:45:10;;;;;;;1999.90;999.90;;;24.20;99.90;;;;;;5070825;28;20222;-79
2021/09/09 09:47:39;;;;;;;1999.90;999.90;;;24.30;99.90;;;;;;5052726;28;20450;-79
2021/09/09 09:50:18;;;;;;;1999.90;999.90;;;24.30;99.90;;;;;;5052536;28;20473;-79
2021/09/09 09:52:47;;;;;;;1999.90;999.90;;;24.30;99.90;;;;;;5051218;28;20469;-79
2021/09/09 09:55:16;;;;;;;1999.90;999.90;;;24.30;99.90;;;;;;5067220;28;20470;-80
2021/09/09 09:57:52;;;;;;;1999.90;999.90;;;24.30;99.90;;;;;;5050189;28;20450;-79
2021/09/09 10:00:20;;;;;;;1999.90;999.90;;;24.40;99.90;;;;;;5050510;28;20789;-79
2021/09/09 10:02:51;;;;;;;1999.90;999.90;;;24.40;99.90;;;;;;5068806;28;20823;-79
2021/09/09 10:05:22;;;;;;;1999.90;999.90;;;24.50;99.90;;;;;;5050416;28;20452;-79
2021/09/09 10:07:51;;;;;;;1999.90;999.90;;;24.60;99.90;;;;;;5051344;28;20604;-79
2021/09/09 10:10:19;;;;;;;1999.90;999.90;;;24.60;99.90;;;;;;5068276;28;20469;-79
2021/09/09 10:12:49;;;;;;;1999.90;999.90;;;24.70;99.90;;;;;;5046795;28;20447;-79
2021/09/09 10:15:20;;;;;;;1999.90;999.90;;;24.70;99.40;;;;;;5047023;28;20216;-79
2021/09/09 10:18:06;;;;;;;1999.90;999.90;;;24.70;99.30;;;;;;5047424;28;20456;-78
2021/09/09 10:20:44;;;;;;;1999.90;999.90;;;24.80;99.40;;;;;;5046612;28;20484;-79
2021/09/09 10:23:14;;;;;;;1999.90;999.90;;;24.80;99.10;;;;;;5043695;28;20446;-78
2021/09/09 10:25:46;;;;;;;1999.90;999.90;;;24.80;99.10;;;;;;5044898;28;20938;-78
2021/09/09 10:28:41;;;;;;;1999.90;999.90;;;24.80;99.20;;;;;;5047940;28;20442;-78
2021/09/09 10:31:11;;;;;;;1999.90;999.90;;;24.80;99.20;;;;;;5067828;28;20446;-79
2021/09/09 10:33:44;;;;;;;1999.90;999.90;;;24.80;99.30;;;;;;5050337;28;20469;-79
2021/09/09 10:36:40;;;;;;;1999.90;999.90;;;24.80;99.30;;;;;;5050482;28;20459;-79
2021/09/09 10:39:09;;;;;;;1999.90;999.90;;;24.90;99.10;;;;;;5032105;28;20196;-79
2021/09/09 10:41:38;;;;;;;1999.90;999.90;;;24.90;99.20;;;;;;5049876;28;20446;-79
2021/09/09 10:44:08;;;;;;;1999.90;999.90;;;25.00;99.20;;;;;;5048212;28;20907;-78
2021/09/09 10:46:38;;;;;;;1999.90;999.90;;;25.00;99.10;;;;;;5068103;28;20438;-79
2021/09/09 10:49:14;;;;;;;1999.90;999.90;;;25.10;99.10;;;;;;5049728;28;20580;-79
2021/09/09 10:52:07;;;;;;;1999.90;999.90;;;25.10;99.00;;;;;;5049343;28;20470;-79
2021/09/09 10:55:03;;;;;;;1999.90;999.90;;;25.10;98.90;;;;;;5047920;28;20556;-79
2021/09/09 10:57:33;;;;;;;1999.90;999.90;;;25.20;98.80;;;;;;5064412;28;20410;-78
2021/09/09 11:00:04;;;;;;;1999.90;995.53;;;25.20;98.70;;;;;;5065267;28;20951;-79
2021/09/09 11:02:33;;;;;;;1999.90;928.07;;;25.30;98.70;;;;;;5045060;28;20514;-79
2021/09/09 11:05:04;;;;;;;1999.90;834.50;;;25.30;98.40;;;;;;5046060;28;20523;-79
2021/09/09 11:07:38;;;;;;;1999.90;999.90;;;25.30;98.20;;;;;;5062985;28;20897;-79
2021/09/09 11:10:08;;;;;;;1999.90;776.37;;;25.40;97.20;;;;;;5044256;28;20271;-79
2021/09/09 11:12:54;;;;;;;1999.90;828.17;;;25.50;97.30;;;;;;5062451;28;20434;-79
2021/09/09 11:15:33;;;;;;;1999.90;895.17;;;25.50;97.50;;;;;;5043873;28;20473;-79
2021/09/09 11:18:03;;;;;;;1999.90;763.47;;;25.50;97.40;;;;;;5043426;28;20460;-78
2021/09/09 11:20:33;;;;;;;1999.90;827.23;;;25.60;97.40;;;;;;5045263;28;20430;-79
2021/09/09 11:23:12;;;;;;;1999.90;861.37;;;25.60;97.40;;;;;;5044826;28;20460;-79
2021/09/09 11:25:41;;;;;;;1999.90;999.90;;;25.60;97.30;;;;;;5044251;28;20442;-79
2021/09/09 11:28:15;;;;;;;1999.90;999.90;;;25.70;97.50;;;;;;5043225;28;20457;-79
2021/09/09 11:30:45;;;;;;;1999.90;999.90;;;25.70;97.10;;;;;;5043809;28;20884;-78
2021/09/09 11:33:15;;;;;;;1999.90;999.90;;;25.70;97.00;;;;;;5061002;28;20442;-78
2021/09/09 11:36:02;;;;;;;1999.90;933.47;;;25.80;96.90;;;;;;5044222;28;20449;-78
2021/09/09 11:38:32;;;;;;;1999.90;999.90;;;25.80;96.80;;;;;;5062512;28;20794;-79
2021/09/09 11:41:08;;;;;;;1999.90;972.57;;;25.90;97.00;;;;;;5062775;28;20441;-79
2021/09/09 11:43:38;;;;;;;1999.90;613.45;;;25.90;96.60;;;;;;5042521;28;20523;-79
2021/09/09 11:46:07;;;;;;;1999.90;999.90;;;25.90;96.30;;;;;;5043218;28;20199;-79
2021/09/09 11:48:38;;;;;;;1999.90;999.90;;;26.00;96.50;;;;;;5043065;28;20454;-79
2021/09/09 11:51:07;;;;;;;1999.90;999.90;;;26.00;96.40;;;;;;5061588;28;20462;-79
2021/09/09 11:53:36;;;;;;;1999.90;999.90;;;26.00;96.30;;;;;;5043551;28;20520;-78
2021/09/09 11:56:22;;;;;;;1999.90;999.90;;;26.10;96.30;;;;;;5060668;28;20442;-78
2021/09/09 11:58:51;;;;;;;1999.90;999.90;;;26.10;96.00;;;;;;5043240;28;20852;-79
2021/09/09 12:01:19;;;;;;;1999.90;999.90;;;26.10;96.00;;;;;;5041279;28;20445;-78
2021/09/09 12:03:49;;;;;;;1999.90;999.90;;;26.10;95.80;;;;;;5042224;28;20485;-79
2021/09/09 12:06:21;;;;;;;1999.90;999.90;;;26.20;95.80;;;;;;5059347;28;20478;-78
2021/09/09 12:08:51;;;;;;;1999.90;999.90;;;26.20;95.30;;;;;;5042541;28;20192;-79
2021/09/09 12:11:20;;;;;;;1999.90;999.90;;;26.30;95.40;;;;;;5059834;28;20479;-78
2021/09/09 12:13:48;;;;;;;1999.90;999.90;;;26.40;95.30;;;;;;5040406;28;20443;-78
2021/09/09 12:16:21;;;;;;;1999.90;999.90;;;26.50;94.80;;;;;;5058934;28;20675;-79
2021/09/09 12:19:02;;;;;;;1999.90;999.90;;;26.50;94.70;;;;;;5041063;28;20854;-79
2021/09/09 12:21:31;;;;;;;1999.90;999.90;;;26.50;94.70;;;;;;5043531;28;20499;-78
2021/09/09 12:24:10;;;;;;;1999.90;999.90;;;26.50;94.80;;;;;;5063157;28;20492;-79
2021/09/09 12:26:39;;;;;;;1999.90;999.90;;;26.50;94.90;;;;;;5045015;28;20430;-78